createdAt,value
2018-10-17T00:03:14.093Z,16.82
2018-10-17T00:07:18.351Z,16.79
2018-10-17T00:11:22.558Z,16.65
2018-10-17T00:15:26.868Z,16.51
2018-10-17T00:19:31.096Z,16.53
2018-10-17T00:23:36.288Z,16.50
2018-10-17T00:27:40.410Z,16.47
2018-10-17T00:31:45.379Z,16.45
2018-10-17T00:35:49.438Z,16.40
2018-10-17T00:39:53.982Z,16.38
2018-10-17T00:43:58.462Z,16.32
2018-10-17T00:48:02.699Z,16.27
2018-10-17T00:52:06.787Z,16.21
2018-10-17T00:56:10.900Z,16.15
2018-10-17T01:00:15.077Z,16.11
2018-10-17T01:04:19.100Z,16.05
2018-10-17T01:08:23.574Z,16.02
2018-10-17T01:12:27.621Z,15.97
2018-10-17T01:16:31.701Z,15.94
2018-10-17T01:20:36.227Z,15.91
2018-10-17T01:24:40.220Z,15.88
2018-10-17T01:28:44.696Z,15.82
2018-10-17T01:32:48.804Z,15.77
2018-10-17T01:36:52.951Z,15.66
2018-10-17T01:40:57.071Z,15.65
2018-10-17T01:45:01.123Z,15.61
2018-10-17T01:49:05.471Z,15.53
2018-10-17T01:53:09.567Z,15.45
2018-10-17T01:57:14.009Z,15.42
2018-10-17T02:01:18.064Z,15.33
2018-10-17T02:05:22.199Z,15.30
2018-10-17T02:09:27.063Z,15.30
2018-10-17T02:13:31.449Z,15.26
2018-10-17T02:17:35.653Z,15.24
2018-10-17T02:21:40.008Z,15.20
2018-10-17T02:25:44.259Z,15.12
2018-10-17T02:29:48.265Z,15.14
2018-10-17T02:33:52.455Z,15.12
2018-10-17T02:37:56.799Z,15.09
2018-10-17T02:42:01.101Z,15.06
2018-10-17T02:46:05.461Z,15.01
2018-10-17T02:50:11.514Z,14.96
2018-10-17T02:54:15.583Z,14.88
2018-10-17T02:58:19.762Z,14.85
2018-10-17T03:02:23.956Z,14.82
2018-10-17T03:06:27.989Z,14.83
2018-10-17T03:10:32.291Z,14.82
2018-10-17T03:14:36.290Z,14.84
2018-10-17T03:18:40.392Z,14.82
2018-10-17T03:22:45.491Z,14.82
2018-10-17T03:26:49.557Z,14.79
2018-10-17T03:30:53.729Z,14.78
2018-10-17T03:34:57.724Z,14.78
2018-10-17T03:39:02.020Z,14.78
2018-10-17T03:43:06.123Z,14.77
2018-10-17T03:47:10.491Z,14.72
2018-10-17T03:51:14.940Z,14.71
2018-10-17T03:55:19.054Z,14.69
2018-10-17T03:59:23.073Z,14.64
2018-10-17T04:03:27.034Z,14.55
2018-10-17T04:07:31.093Z,14.49
2018-10-17T04:11:35.455Z,14.48
2018-10-17T04:15:39.495Z,14.47
2018-10-17T04:19:44.087Z,14.45
2018-10-17T04:23:48.108Z,14.44
2018-10-17T04:27:54.407Z,14.37
2018-10-17T04:31:58.626Z,14.33
2018-10-17T04:36:02.775Z,14.33
2018-10-17T04:40:06.735Z,14.28
2018-10-17T04:44:11.732Z,14.27
2018-10-17T04:48:17.245Z,14.22
2018-10-17T04:52:21.302Z,14.17
2018-10-17T04:56:25.698Z,14.13
2018-10-17T05:00:29.806Z,14.09
2018-10-17T05:04:33.944Z,14.06
2018-10-17T05:08:38.776Z,13.98
2018-10-17T05:12:43.485Z,13.97
2018-10-17T05:16:47.522Z,13.96
2018-10-17T05:20:51.549Z,13.92
2018-10-17T05:24:55.681Z,13.88
2018-10-17T05:28:59.986Z,13.87
2018-10-17T05:33:04.098Z,13.82
2018-10-17T05:37:08.148Z,13.78
2018-10-17T05:41:12.304Z,13.75
2018-10-17T05:45:16.392Z,13.71
2018-10-17T05:49:20.447Z,13.67
2018-10-17T05:53:24.741Z,13.66
2018-10-17T05:57:28.833Z,13.61
2018-10-17T06:01:33.115Z,13.57
2018-10-17T06:05:37.220Z,13.56
2018-10-17T06:09:41.193Z,13.54
2018-10-17T06:13:45.338Z,13.51
2018-10-17T06:17:50.934Z,13.50
2018-10-17T06:21:54.872Z,13.54
2018-10-17T06:25:58.927Z,13.58
2018-10-17T06:30:02.915Z,13.61
2018-10-17T06:34:07.179Z,13.58
2018-10-17T06:38:11.045Z,13.53
2018-10-17T06:42:15.377Z,13.54
2018-10-17T06:46:19.549Z,13.66
2018-10-17T06:50:23.561Z,13.79
2018-10-17T06:54:28.050Z,13.84
2018-10-17T06:58:32.001Z,13.86
2018-10-17T07:02:36.017Z,13.88
2018-10-17T07:06:39.988Z,13.84
2018-10-17T07:10:44.390Z,13.81
2018-10-17T07:14:48.402Z,13.88
2018-10-17T07:18:53.434Z,13.92
2018-10-17T07:22:57.494Z,14.03
2018-10-17T07:27:01.796Z,14.21
2018-10-17T07:31:06.027Z,14.35
2018-10-17T07:35:10.714Z,14.50
2018-10-17T07:39:14.890Z,14.64
2018-10-17T07:43:18.881Z,14.84
2018-10-17T07:47:23.408Z,15.03
2018-10-17T07:51:27.613Z,15.23
2018-10-17T07:55:31.802Z,15.40
2018-10-17T07:59:35.917Z,15.55
2018-10-17T08:03:39.917Z,15.76
2018-10-17T08:07:44.118Z,15.92
2018-10-17T08:11:48.546Z,16.02
2018-10-17T08:15:53.972Z,15.85
2018-10-17T08:19:57.989Z,16.02
2018-10-17T08:24:02.635Z,16.09
2018-10-17T08:28:06.678Z,16.22
2018-10-17T08:32:11.064Z,16.41
2018-10-17T08:36:15.475Z,16.69
2018-10-17T08:40:19.323Z,16.94
2018-10-17T08:44:24.149Z,17.28
2018-10-17T08:48:28.106Z,17.50
2018-10-17T08:52:32.222Z,17.65
2018-10-17T08:56:36.323Z,17.58
2018-10-17T09:00:40.348Z,17.88
2018-10-17T09:04:44.459Z,18.02
2018-10-17T09:08:48.509Z,18.34
2018-10-17T09:12:52.509Z,18.66
2018-10-17T09:16:56.689Z,18.95
2018-10-17T09:21:01.762Z,19.28
2018-10-17T09:25:05.428Z,19.86
2018-10-17T09:29:09.640Z,21.59
2018-10-17T09:33:13.788Z,23.24
2018-10-17T09:37:17.801Z,23.85
2018-10-17T09:41:22.052Z,24.97
2018-10-17T09:45:26.169Z,25.71
2018-10-17T09:49:30.145Z,26.98
2018-10-17T09:53:34.480Z,27.94
2018-10-17T09:57:38.612Z,29.14
2018-10-17T10:01:46.695Z,30.19
2018-10-17T10:05:50.722Z,31.25
2018-10-17T10:09:55.050Z,31.45
2018-10-17T10:13:59.219Z,31.75
2018-10-17T10:18:03.266Z,31.97
2018-10-17T10:22:07.422Z,31.55
2018-10-17T10:26:12.006Z,31.93
2018-10-17T10:30:16.602Z,32.22
2018-10-17T10:34:20.843Z,31.81
2018-10-17T10:38:24.885Z,31.61
2018-10-17T10:42:29.360Z,31.10
2018-10-17T10:46:33.306Z,31.10
2018-10-17T10:50:38.495Z,31.72
2018-10-17T10:54:42.476Z,32.44
2018-10-17T10:58:47.275Z,32.42
2018-10-17T11:02:51.225Z,33.11
2018-10-17T11:06:55.216Z,33.13
2018-10-17T11:10:59.309Z,33.48
2018-10-17T11:15:03.831Z,32.97
2018-10-17T11:19:08.867Z,32.60
2018-10-17T11:23:13.521Z,32.43
2018-10-17T11:27:17.634Z,32.90
2018-10-17T11:31:21.666Z,33.25
2018-10-17T11:35:26.242Z,33.74
2018-10-17T11:39:30.301Z,33.71
2018-10-17T11:43:34.456Z,33.04
2018-10-17T11:47:39.465Z,33.33
2018-10-17T11:51:43.526Z,33.75
2018-10-17T11:55:47.626Z,34.23
2018-10-17T11:59:52.033Z,34.48
2018-10-17T12:03:56.432Z,35.45
2018-10-17T12:08:00.220Z,36.79
2018-10-17T12:12:05.518Z,37.44
2018-10-17T12:16:10.067Z,37.67
2018-10-17T12:20:15.025Z,36.24
2018-10-17T12:24:19.001Z,37.01
2018-10-17T12:28:23.374Z,38.38
2018-10-17T12:32:27.320Z,39.06
2018-10-17T12:36:31.428Z,39.59
2018-10-17T12:40:35.743Z,39.94
2018-10-17T12:44:39.537Z,40.37
2018-10-17T12:48:43.711Z,40.87
2018-10-17T12:52:48.216Z,40.30
2018-10-17T12:56:52.181Z,39.97
2018-10-17T13:00:56.567Z,41.10
2018-10-17T13:05:00.528Z,40.17
2018-10-17T13:09:08.778Z,39.64
2018-10-17T13:13:12.823Z,39.78
2018-10-17T13:17:17.321Z,38.46
2018-10-17T13:21:21.540Z,36.13
2018-10-17T13:25:26.362Z,35.46
2018-10-17T13:29:30.415Z,37.44
2018-10-17T13:33:34.469Z,37.95
2018-10-17T13:37:38.498Z,38.87
2018-10-17T13:41:42.655Z,39.09
2018-10-17T13:45:46.708Z,38.26
2018-10-17T13:49:51.730Z,36.96
2018-10-17T13:53:55.715Z,37.36
2018-10-17T13:57:59.787Z,36.67
2018-10-17T14:02:04.833Z,36.76
2018-10-17T14:06:09.021Z,36.86
2018-10-17T14:10:13.626Z,37.45
2018-10-17T14:14:17.776Z,36.59
2018-10-17T14:18:22.120Z,35.56
2018-10-17T14:22:26.064Z,33.43
2018-10-17T14:26:30.095Z,31.97
2018-10-17T14:30:34.234Z,30.85
2018-10-17T14:34:38.275Z,30.45
2018-10-17T14:38:42.327Z,29.87
2018-10-17T14:42:46.301Z,29.59
2018-10-17T14:46:50.709Z,29.34
2018-10-17T14:50:55.494Z,29.24
2018-10-17T14:54:59.717Z,29.15
2018-10-17T14:59:03.781Z,29.06
2018-10-17T15:03:07.785Z,28.90
2018-10-17T15:07:12.045Z,28.48
2018-10-17T15:11:16.387Z,28.14
2018-10-17T15:15:20.560Z,27.73
2018-10-17T15:19:25.270Z,27.66
2018-10-17T15:23:29.320Z,27.38
2018-10-17T15:27:33.305Z,27.05
2018-10-17T15:31:37.368Z,26.79
2018-10-17T15:35:41.637Z,26.58
2018-10-17T15:39:45.820Z,26.45
2018-10-17T15:43:50.605Z,26.22
2018-10-17T15:47:55.334Z,25.97
2018-10-17T15:51:59.500Z,25.64
2018-10-17T15:56:04.124Z,25.40
2018-10-17T16:00:09.950Z,25.27
2018-10-17T16:04:14.816Z,25.01
2018-10-17T16:08:18.891Z,24.91
2018-10-17T16:12:23.072Z,24.74
2018-10-17T16:16:27.062Z,24.65
2018-10-17T16:20:31.138Z,24.56
2018-10-17T16:24:35.860Z,24.47
2018-10-17T16:28:39.934Z,24.38
2018-10-17T16:32:45.027Z,24.13
2018-10-17T16:36:49.040Z,23.94
2018-10-17T16:40:53.090Z,23.77
2018-10-17T16:44:57.404Z,23.57
2018-10-17T16:49:02.606Z,23.14
2018-10-17T16:53:06.695Z,22.56
2018-10-17T16:57:11.255Z,22.35
2018-10-17T17:01:15.560Z,22.35
2018-10-17T17:05:19.537Z,22.21
2018-10-17T17:09:24.744Z,21.98
2018-10-17T17:13:28.753Z,21.69
2018-10-17T17:17:32.975Z,21.42
2018-10-17T17:21:38.029Z,21.17
2018-10-17T17:25:42.688Z,20.89
2018-10-17T17:29:46.919Z,20.78
2018-10-17T17:33:50.778Z,20.63
2018-10-17T17:37:55.448Z,20.53
2018-10-17T17:41:59.448Z,20.47
2018-10-17T17:46:03.734Z,20.51
2018-10-17T17:50:08.316Z,20.55
2018-10-17T17:54:12.309Z,20.59
2018-10-17T17:58:16.946Z,20.52
2018-10-17T18:02:21.112Z,20.45
2018-10-17T18:06:25.315Z,20.31
2018-10-17T18:10:29.241Z,20.30
2018-10-17T18:14:33.267Z,20.31
2018-10-17T18:18:37.367Z,20.23
2018-10-17T18:22:41.773Z,20.18
2018-10-17T18:26:45.971Z,20.18
2018-10-17T18:30:50.292Z,20.08
2018-10-17T18:35:01.331Z,20.07
2018-10-17T18:39:07.213Z,19.99
2018-10-17T18:43:11.277Z,19.89
2018-10-17T18:47:15.392Z,19.91
2018-10-17T18:51:19.465Z,19.92
2018-10-17T18:55:23.436Z,19.92
2018-10-17T18:59:27.531Z,19.85
2018-10-17T19:03:31.668Z,19.70
2018-10-17T19:07:35.733Z,19.67
2018-10-17T19:11:40.610Z,19.70
2018-10-17T19:15:44.631Z,19.71
2018-10-17T19:19:48.766Z,19.65
2018-10-17T19:23:52.803Z,19.64
2018-10-17T19:27:57.024Z,19.70
2018-10-17T19:32:01.149Z,19.67
2018-10-17T19:36:05.808Z,19.73
2018-10-17T19:40:10.409Z,19.73
2018-10-17T19:44:14.489Z,19.64
2018-10-17T19:48:18.501Z,19.62
2018-10-17T19:52:22.604Z,19.59
2018-10-17T19:56:26.662Z,19.59
2018-10-17T20:00:30.884Z,19.49
2018-10-17T20:04:34.902Z,19.16
2018-10-17T20:08:39.210Z,19.12
2018-10-17T20:12:43.195Z,19.03
2018-10-17T20:16:47.251Z,18.88
2018-10-17T20:20:51.261Z,18.78
2018-10-17T20:24:55.470Z,18.75
2018-10-17T20:28:59.586Z,18.60
2018-10-17T20:33:03.638Z,18.43
2018-10-17T20:37:07.605Z,18.39
2018-10-17T20:41:11.980Z,18.12
2018-10-17T20:45:15.976Z,17.96
2018-10-17T20:49:20.333Z,17.81
2018-10-17T20:53:24.599Z,17.68
2018-10-17T20:57:28.742Z,17.70
2018-10-17T21:01:32.665Z,17.69
2018-10-17T21:05:37.147Z,17.67
2018-10-17T21:09:41.096Z,17.72
2018-10-17T21:13:45.324Z,17.79
2018-10-17T21:17:49.565Z,17.86
2018-10-17T21:21:53.712Z,17.88
2018-10-17T21:25:57.771Z,17.83
2018-10-17T21:30:02.831Z,17.80
2018-10-17T21:34:06.788Z,17.78
2018-10-17T21:38:10.910Z,17.69
2018-10-17T21:42:14.993Z,17.74
2018-10-17T21:46:18.974Z,17.84
2018-10-17T21:50:23.012Z,17.93
2018-10-17T21:54:27.079Z,17.95
2018-10-17T21:58:31.127Z,17.94
2018-10-17T22:02:35.194Z,17.93
2018-10-17T22:06:39.291Z,17.92
2018-10-17T22:10:43.970Z,17.78
2018-10-17T22:14:47.883Z,17.66
2018-10-17T22:18:51.951Z,17.60
2018-10-17T22:22:56.002Z,17.57
2018-10-17T22:27:00.242Z,17.57
2018-10-17T22:31:05.419Z,17.65
2018-10-17T22:35:09.434Z,17.68
2018-10-17T22:39:14.883Z,17.60
2018-10-17T22:43:18.878Z,17.54
2018-10-17T22:47:22.868Z,17.47
2018-10-17T22:51:27.029Z,17.36
2018-10-17T22:55:31.020Z,17.35
2018-10-17T22:59:35.024Z,17.37
2018-10-17T23:03:39.676Z,17.30
2018-10-17T23:07:43.696Z,17.20
2018-10-17T23:11:48.336Z,17.08
2018-10-17T23:15:52.400Z,17.07
2018-10-17T23:19:56.612Z,17.07
2018-10-17T23:24:00.604Z,17.11
2018-10-17T23:28:05.305Z,17.04
2018-10-17T23:32:09.798Z,17.03
2018-10-17T23:36:13.886Z,17.13
2018-10-17T23:40:17.974Z,17.13
2018-10-17T23:44:22.005Z,17.18
2018-10-17T23:48:26.069Z,17.14
2018-10-17T23:52:31.518Z,17.13
2018-10-17T23:56:36.424Z,17.06
